WXM80 ListenWXM80 Stop

You find our weather info also at:

UK Metoffice

WeatherCloud

Weather Underground

Northeastern Weather Network

AWEKAS

Citizen Weather Observer Program (CWOP)

HAMweather, WeatherForYou, PWS Weather


Weather Underground History page Text

Daily Summary for July 14, 2017 Units:  English    Metric   Both
« Previous Day
Next Day »
Daily Weekly Monthly Yearly Custom
  High: Low: Average:
Temperature: 68.7 °F 64.4 °F 66.7 °F
Dew Point: 67.5 °F 62.6 °F 65.3 °F
Humidity: 98 % 93 % 96 %
Wind Speed: 2.7 mph 0.0 mph 0.8 mph
Wind Gust: 5.8 mph - -
Wind:- - East
Pressure: 30.07 in 29.92 in -
Precipitation: 0.38 in    
Historical Graphs
 
 
Tabular Data for July 14, 2017
Time Temperature Dew Point Pressure Wind Wind Speed Wind Gust Humidity Rainfall Rate (Hourly)
00:04 68.7 °F 66.9 °F 30.01 in East 2.1 mph 3.5 mph 94 % 0.00 in
00:09 68.6 °F 66.8 °F 30.01 in East 2.3 mph 3.5 mph 94 % 0.00 in
00:14 68.5 °F 66.7 °F 30.01 in East 2.6 mph 4.6 mph 94 % 0.00 in
00:19 68.4 °F 66.6 °F 30.01 in East 1.9 mph 3.5 mph 94 % 0.00 in
00:24 68.3 °F 66.5 °F 30.01 in ESE 2.3 mph 3.5 mph 94 % 0.00 in
00:29 68.2 °F 66.4 °F 30.01 in East 2.6 mph 4.6 mph 94 % 0.00 in
00:34 68.1 °F 66.3 °F 30.01 in East 1.8 mph 3.5 mph 94 % 0.00 in
00:39 68.0 °F 66.2 °F 30.00 in East 2.4 mph 3.5 mph 94 % 0.00 in
00:41 68.0 °F 66.2 °F 30.00 in ESE 1.5 mph 3.5 mph 94 % 0.00 in
00:46 67.9 °F 66.1 °F 30.00 in East 2.0 mph 4.6 mph 94 % 0.00 in
00:51 67.7 °F 65.9 °F 30.00 in East 2.2 mph 4.6 mph 94 % 0.00 in
00:56 67.6 °F 65.8 °F 30.00 in ESE 1.0 mph 3.5 mph 94 % 0.00 in
01:01 67.3 °F 65.5 °F 30.00 in ESE 2.1 mph 3.5 mph 94 % 0.00 in
01:06 67.1 °F 65.3 °F 30.00 in East 2.4 mph 3.5 mph 94 % 0.00 in
01:11 67.0 °F 65.2 °F 30.00 in East 1.8 mph 3.5 mph 94 % 0.00 in
01:16 66.9 °F 65.1 °F 30.00 in East 1.8 mph 3.5 mph 94 % 0.00 in
01:21 66.7 °F 64.9 °F 30.00 in East 2.2 mph 3.5 mph 94 % 0.00 in
01:26 66.6 °F 64.8 °F 30.00 in East 1.4 mph 2.3 mph 94 % 0.00 in
01:31 66.6 °F 64.8 °F 30.00 in East 1.9 mph 3.5 mph 94 % 0.00 in
01:36 66.6 °F 64.8 °F 30.00 in East 1.9 mph 3.5 mph 94 % 0.00 in
01:41 66.5 °F 64.7 °F 30.00 in ESE 1.2 mph 3.5 mph 94 % 0.00 in
01:46 66.5 °F 64.7 °F 30.00 in ESE 1.2 mph 2.3 mph 94 % 0.00 in
01:51 66.5 °F 64.7 °F 30.00 in East 1.3 mph 3.5 mph 94 % 0.00 in
01:57 66.4 °F 64.6 °F 30.01 in East 0.5 mph 2.3 mph 94 % 0.00 in
02:01 66.4 °F 64.6 °F 30.01 in East 1.0 mph 2.3 mph 94 % 0.00 in
02:07 66.3 °F 64.5 °F 30.01 in East 1.2 mph 3.5 mph 94 % 0.00 in
02:12 66.3 °F 64.5 °F 30.01 in East 1.5 mph 3.5 mph 94 % 0.00 in
02:17 66.2 °F 64.4 °F 30.01 in East 1.7 mph 3.5 mph 94 % 0.00 in
02:22 66.1 °F 64.3 °F 30.00 in ESE 1.8 mph 3.5 mph 94 % 0.00 in
02:27 66.1 °F 64.3 °F 30.01 in East 1.0 mph 2.3 mph 94 % 0.00 in
02:32 66.0 °F 64.2 °F 30.01 in East 1.5 mph 3.5 mph 94 % 0.00 in
02:37 66.0 °F 63.9 °F 30.01 in ESE 1.2 mph 2.3 mph 93 % 0.00 in
02:42 65.9 °F 63.8 °F 30.01 in ESE 0.3 mph 1.2 mph 93 % 0.00 in
02:47 65.8 °F 63.7 °F 30.01 in ESE 1.0 mph 2.3 mph 93 % 0.00 in
02:52 65.8 °F 63.7 °F 30.01 in East 1.2 mph 3.0 mph 93 % 0.00 in
02:57 65.8 °F 63.7 °F 30.02 in ESE 1.4 mph 3.5 mph 93 % 0.00 in
03:02 65.7 °F 63.6 °F 30.02 in ESE 0.8 mph 3.5 mph 93 % 0.00 in
03:07 65.7 °F 63.6 °F 30.02 in ESE 0.6 mph 2.3 mph 93 % 0.00 in
03:12 65.7 °F 63.6 °F 30.02 in ESE 0.7 mph 2.3 mph 93 % 0.00 in
03:18 65.7 °F 63.6 °F 30.02 in ENE 1.6 mph 3.5 mph 93 % 0.00 in
03:23 65.6 °F 63.5 °F 30.02 in ENE 2.2 mph 4.6 mph 93 % 0.00 in
03:28 65.6 °F 63.5 °F 30.02 in ENE 1.7 mph 3.5 mph 93 % 0.00 in
03:33 65.6 °F 63.5 °F 30.02 in ENE 2.0 mph 3.5 mph 93 % 0.00 in
03:38 65.5 °F 63.4 °F 30.03 in East 1.7 mph 3.5 mph 93 % 0.00 in
03:43 65.4 °F 63.3 °F 30.03 in East 1.9 mph 4.6 mph 93 % 0.00 in
03:48 65.4 °F 63.3 °F 30.02 in East 2.5 mph 3.5 mph 93 % 0.00 in
03:53 65.4 °F 63.3 °F 30.02 in East 1.4 mph 2.3 mph 93 % 0.00 in
03:58 65.2 °F 63.1 °F 30.02 in ESE 1.8 mph 3.5 mph 93 % 0.00 in
04:03 65.2 °F 63.1 °F 30.02 in East 2.0 mph 3.5 mph 93 % 0.00 in
04:08 65.2 °F 63.1 °F 30.02 in East 2.1 mph 3.5 mph 93 % 0.00 in
04:13 65.2 °F 63.1 °F 30.02 in ENE 2.0 mph 3.5 mph 93 % 0.00 in
04:18 65.1 °F 63.0 °F 30.02 in ENE 1.1 mph 2.3 mph 93 % 0.00 in
04:23 65.0 °F 62.9 °F 30.02 in East 2.3 mph 3.5 mph 93 % 0.00 in
04:28 65.0 °F 62.9 °F 30.02 in East 1.7 mph 3.5 mph 93 % 0.00 in
04:33 65.0 °F 62.9 °F 30.02 in ENE 2.5 mph 4.0 mph 93 % 0.00 in
04:38 64.9 °F 62.8 °F 30.02 in East 1.4 mph 3.5 mph 93 % 0.00 in
04:43 64.8 °F 62.7 °F 30.02 in East 2.2 mph 4.6 mph 93 % 0.00 in
04:48 64.8 °F 63.0 °F 30.02 in ENE 2.4 mph 4.0 mph 94 % 0.00 in
04:53 64.8 °F 62.7 °F 30.02 in East 1.9 mph 3.5 mph 93 % 0.00 in
04:59 64.7 °F 62.9 °F 30.02 in East 1.1 mph 3.0 mph 94 % 0.00 in
05:04 64.7 °F 62.9 °F 30.02 in East 2.2 mph 3.5 mph 94 % 0.00 in
05:09 64.7 °F 62.9 °F 30.02 in East 2.3 mph 3.5 mph 94 % 0.00 in
05:14 64.6 °F 62.8 °F 30.02 in East 1.5 mph 3.5 mph 94 % 0.00 in
05:19 64.6 °F 62.8 °F 30.02 in ENE 2.5 mph 4.6 mph 94 % 0.00 in
05:24 64.5 °F 62.7 °F 30.02 in ENE 2.5 mph 3.5 mph 94 % 0.00 in
05:29 64.5 °F 62.7 °F 30.02 in ENE 2.0 mph 3.5 mph 94 % 0.00 in
05:34 64.4 °F 62.6 °F 30.02 in ENE 2.0 mph 3.5 mph 94 % 0.00 in
05:39 64.5 °F 62.7 °F 30.02 in East 2.3 mph 3.5 mph 94 % 0.00 in
05:44 64.4 °F 62.6 °F 30.03 in East 2.4 mph 3.5 mph 94 % 0.00 in
05:49 64.4 °F 62.6 °F 30.03 in ESE 1.8 mph 3.0 mph 94 % 0.00 in
05:54 64.4 °F 62.6 °F 30.04 in East 1.3 mph 2.3 mph 94 % 0.00 in
05:59 64.4 °F 62.6 °F 30.03 in ENE 1.7 mph 3.5 mph 94 % 0.00 in
06:04 64.4 °F 62.6 °F 30.03 in East 1.4 mph 3.5 mph 94 % 0.00 in
06:09 64.4 °F 62.6 °F 30.03 in East 1.5 mph 2.3 mph 94 % 0.00 in
06:14 64.4 °F 62.6 °F 30.04 in ENE 0.9 mph 2.3 mph 94 % 0.00 in
06:19 64.4 °F 62.6 °F 30.04 in East 0.3 mph 2.3 mph 94 % 0.00 in
06:24 64.4 °F 62.6 °F 30.04 in East 1.0 mph 2.3 mph 94 % 0.00 in
06:29 64.4 °F 62.6 °F 30.04 in East 1.9 mph 4.6 mph 94 % 0.00 in
06:34 64.4 °F 62.6 °F 30.04 in East 1.7 mph 2.3 mph 94 % 0.00 in
06:39 64.4 °F 62.6 °F 30.04 in ENE 0.9 mph 4.6 mph 94 % 0.00 in
06:44 64.4 °F 62.6 °F 30.04 in East 1.2 mph 2.3 mph 94 % 0.00 in
06:49 64.4 °F 62.6 °F 30.04 in ENE 1.1 mph 3.5 mph 94 % 0.00 in
06:54 64.4 °F 62.6 °F 30.04 in East 0.9 mph 2.3 mph 94 % 0.00 in
07:00 64.5 °F 62.7 °F 30.04 in East 1.2 mph 3.5 mph 94 % 0.00 in
07:05 64.5 °F 62.7 °F 30.04 in ENE 1.0 mph 2.3 mph 94 % 0.00 in
07:10 64.5 °F 63.0 °F 30.04 in ENE 0.3 mph 2.3 mph 95 % 0.00 in
07:15 64.5 °F 63.0 °F 30.05 in ENE 0.4 mph 1.2 mph 95 % 0.00 in
07:20 64.5 °F 63.0 °F 30.05 in ENE 0.2 mph 1.2 mph 95 % 0.00 in
07:25 64.6 °F 63.1 °F 30.05 in ENE 0.4 mph 1.2 mph 95 % 0.00 in
07:30 64.5 °F 63.0 °F 30.06 in Calm   1.2 mph 95 % 0.00 in
07:35 64.5 °F 63.0 °F 30.06 in East 0.1 mph 1.2 mph 95 % 0.00 in
07:40 64.5 °F 63.0 °F 30.06 in East 1.2 mph 2.3 mph 95 % 0.00 in
07:45 64.5 °F 63.0 °F 30.07 in East 0.1 mph 1.2 mph 95 % 0.01 in
07:50 64.5 °F 63.0 °F 30.06 in NE 1.1 mph 2.3 mph 95 % 0.01 in
07:55 64.5 °F 63.0 °F 30.06 in ENE 0.8 mph 3.5 mph 95 % 0.01 in
08:00 64.5 °F 63.0 °F 30.05 in ENE 1.2 mph 2.3 mph 95 % 0.01 in
08:05 64.5 °F 63.0 °F 30.06 in ENE 0.1 mph 2.3 mph 95 % 0.02 in
08:10 64.5 °F 63.0 °F 30.06 in ENE 0.6 mph 2.0 mph 95 % 0.02 in
08:15 64.6 °F 63.1 °F 30.06 in ENE 0.6 mph 2.3 mph 95 % 0.03 in
08:20 64.5 °F 63.0 °F 30.06 in ENE 1.0 mph 2.3 mph 95 % 0.03 in
08:25 64.5 °F 63.0 °F 30.06 in ENE 1.1 mph 2.3 mph 95 % 0.04 in
08:30 64.6 °F 63.4 °F 30.05 in East 1.3 mph 2.3 mph 96 % 0.04 in
08:35 64.6 °F 63.4 °F 30.05 in East 1.5 mph 3.0 mph 96 % 0.06 in
08:40 64.6 °F 63.4 °F 30.05 in East 1.0 mph 2.3 mph 96 % 0.06 in
08:45 64.6 °F 63.4 °F 30.05 in East 1.6 mph 2.3 mph 96 % 0.06 in
08:50 64.6 °F 63.4 °F 30.04 in East 1.8 mph 2.3 mph 96 % 0.07 in
08:55 64.7 °F 63.5 °F 30.05 in East 1.2 mph 2.3 mph 96 % 0.07 in
09:00 64.7 °F 63.5 °F 30.04 in East 1.6 mph 3.5 mph 96 % 0.07 in
09:05 64.7 °F 63.5 °F 30.04 in East 1.4 mph 2.3 mph 96 % 0.07 in
09:10 64.7 °F 63.5 °F 30.04 in East 1.5 mph 3.5 mph 96 % 0.07 in
09:13 64.8 °F 63.6 °F 30.04 in East 0.6 mph 2.3 mph 96 % 0.07 in
09:18 64.8 °F 63.6 °F 30.04 in East 1.3 mph 2.3 mph 96 % 0.06 in
09:23 64.8 °F 63.6 °F 30.04 in East 0.7 mph 2.3 mph 96 % 0.05 in
09:28 64.8 °F 63.6 °F 30.05 in ENE 1.6 mph 3.5 mph 96 % 0.06 in
09:33 64.8 °F 63.6 °F 30.05 in ENE 0.9 mph 2.3 mph 96 % 0.05 in
09:38 64.7 °F 63.5 °F 30.05 in NE 1.6 mph 3.5 mph 96 % 0.05 in
09:43 64.7 °F 63.5 °F 30.05 in NE 0.2 mph 1.2 mph 96 % 0.04 in
09:48 64.7 °F 63.8 °F 30.05 in ENE 1.9 mph 3.5 mph 97 % 0.05 in
09:53 64.6 °F 63.7 °F 30.06 in NE 1.3 mph 3.5 mph 97 % 0.04 in
09:58 64.5 °F 63.3 °F 30.06 in NE 1.5 mph 2.3 mph 96 % 0.05 in
10:00 64.5 °F 63.3 °F 30.06 in NE 0.4 mph 3.5 mph 96 % 0.05 in
10:05 64.5 °F 63.3 °F 30.06 in Calm   3.5 mph 96 % 0.05 in
10:10 64.6 °F 63.7 °F 30.06 in NE 0.3 mph 2.3 mph 97 % 0.06 in
10:16 64.8 °F 63.9 °F 30.06 in NE 0.3 mph 1.2 mph 97 % 0.06 in
10:21 65.1 °F 64.2 °F 30.05 in Calm   2.0 mph 97 % 0.00 in
10:26 65.4 °F 64.5 °F 30.05 in NE 1.0 mph 2.0 mph 97 % 0.00 in
10:31 65.8 °F 64.9 °F 30.05 in Calm   2.0 mph 97 % 0.00 in
10:36 66.2 °F 65.6 °F 30.05 in ENE 1.0 mph 3.0 mph 98 % 0.01 in
10:41 66.3 °F 65.4 °F 30.04 in East 1.0 mph 2.0 mph 97 % 0.00 in
10:46 66.4 °F 65.5 °F 30.05 in Calm   2.0 mph 97 % 0.00 in
10:51 66.4 °F 65.5 °F 30.05 in Calm   1.2 mph 97 % 0.07 in
10:56 66.4 °F 65.5 °F 30.05 in ENE 0.4 mph 1.2 mph 97 % 0.06 in
11:01 66.5 °F 65.6 °F 30.05 in ENE 0.1 mph 1.2 mph 97 % 0.07 in
11:06 66.5 °F 65.6 °F 30.05 in ENE 0.4 mph 2.0 mph 97 % 0.06 in
11:11 66.6 °F 65.7 °F 30.05 in ENE 0.1 mph 1.2 mph 97 % 0.05 in
11:16 66.6 °F 65.7 °F 30.04 in Calm   2.0 mph 97 % 0.00 in
11:21 66.7 °F 65.8 °F 30.04 in Calm   1.0 mph 97 % 0.00 in
11:26 66.9 °F 66.0 °F 30.04 in Calm   1.0 mph 97 % 0.00 in
11:31 67.1 °F 66.2 °F 30.03 in Calm   2.0 mph 97 % 0.00 in
11:36 67.2 °F 66.3 °F 30.02 in Calm   1.0 mph 97 % 0.00 in
11:41 67.3 °F 66.5 °F 30.02 in Calm   3.0 mph 97 % 0.00 in
11:46 67.3 °F 66.4 °F 30.02 in ESE 1.0 mph 3.0 mph 97 % 0.00 in
11:56 67.5 °F 66.6 °F 30.02 in Calm   1.0 mph 97 % 0.00 in
12:01 67.8 °F 66.9 °F 30.02 in SE 0.1 mph 2.3 mph 97 % 0.03 in
12:06 67.9 °F 67.1 °F 30.02 in Calm   3.0 mph 97 % 0.00 in
12:11 68.1 °F 67.2 °F 30.02 in Calm   1.0 mph 97 % 0.00 in
12:16 68.0 °F 67.1 °F 30.02 in SSE 1.0 mph 4.0 mph 97 % 0.00 in
12:21 68.4 °F 67.5 °F 30.02 in SE 2.3 mph 2.3 mph 97 % 0.04 in
12:26 68.3 °F 67.4 °F 30.02 in SE 1.4 mph 3.5 mph 97 % 0.04 in
12:31 68.3 °F 67.4 °F 30.02 in SSE 0.6 mph 3.5 mph 97 % 0.03 in
12:36 68.2 °F 67.0 °F 30.02 in ESE 1.4 mph 4.6 mph 96 % 0.03 in
12:41 68.1 °F 66.9 °F 30.02 in Calm   1.2 mph 96 % 0.04 in
12:46 68.1 °F 66.9 °F 30.02 in SE 1.0 mph 4.6 mph 96 % 0.03 in
12:51 68.0 °F 66.5 °F 30.02 in SE 2.1 mph 3.5 mph 95 % 0.03 in
12:54 67.9 °F 66.4 °F 30.02 in SE 2.7 mph 5.8 mph 95 % 0.03 in
12:59 67.9 °F 66.4 °F 30.02 in SE 0.1 mph 1.2 mph 95 % 0.03 in
13:04 68.0 °F 66.5 °F 30.02 in SE 0.1 mph 3.5 mph 95 % 0.03 in
13:09 68.0 °F 66.5 °F 30.02 in SE 0.1 mph 3.5 mph 95 % 0.03 in
13:14 68.1 °F 66.6 °F 30.02 in Calm     95 % 0.03 in
13:19 68.1 °F 66.6 °F 30.02 in Calm     95 % 0.03 in
13:24 68.2 °F 66.7 °F 30.02 in Calm   1.0 mph 95 % 0.03 in
13:29 68.3 °F 66.8 °F 30.02 in Calm     95 % 0.03 in
13:34 68.4 °F 66.9 °F 30.02 in Calm     95 % 0.03 in
13:39 68.5 °F 67.0 °F 30.02 in East 0.6 mph 2.3 mph 95 % 0.03 in
13:44 68.5 °F 67.0 °F 30.02 in Calm   1.2 mph 95 % 0.02 in
13:49 68.5 °F 67.0 °F 30.02 in Calm     95 % 0.03 in
13:54 68.6 °F 67.1 °F 30.02 in East 1.1 mph 1.2 mph 95 % 0.03 in
13:59 68.5 °F 67.0 °F 30.02 in Calm     95 % 0.03 in
14:05 68.5 °F 66.7 °F 30.02 in Calm   2.3 mph 94 % 0.02 in
14:10 68.5 °F 66.7 °F 30.02 in Calm     94 % 0.02 in
14:15 68.5 °F 66.7 °F 30.02 in Calm     94 % 0.02 in
14:20 68.5 °F 66.7 °F 30.02 in Calm   1.2 mph 94 % 0.03 in
14:25 68.4 °F 66.6 °F 30.02 in SE 0.8 mph 2.3 mph 94 % 0.02 in
14:30 68.4 °F 66.6 °F 30.02 in SE 0.4 mph 2.3 mph 94 % 0.02 in
14:35 68.4 °F 66.6 °F 30.02 in Calm     94 % 0.02 in
14:40 68.4 °F 66.6 °F 30.02 in Calm     94 % 0.02 in
14:45 68.4 °F 66.6 °F 30.02 in SE 0.1 mph 1.2 mph 94 % 0.03 in
14:50 68.4 °F 66.6 °F 30.02 in Calm     94 % 0.02 in
14:55 68.4 °F 66.9 °F 30.01 in Calm   2.3 mph 95 % 0.02 in
15:01 68.4 °F 66.9 °F 30.01 in Calm     95 % 0.02 in
15:06 68.4 °F 66.9 °F 30.01 in Calm   1.0 mph 95 % 0.00 in
15:11 68.4 °F 66.9 °F 30.01 in Calm   1.0 mph 95 % 0.00 in
15:16 68.4 °F 66.9 °F 30.00 in Calm   1.0 mph 95 % 0.00 in
15:21 68.4 °F 66.9 °F 30.00 in Calm   1.0 mph 95 % 0.00 in
15:26 68.3 °F 66.8 °F 29.99 in SE 1.0 mph 3.0 mph 95 % 0.00 in
15:31 68.3 °F 66.8 °F 29.98 in Calm   1.0 mph 95 % 0.00 in
15:36 68.2 °F 66.7 °F 29.98 in Calm   2.0 mph 95 % 0.00 in
15:40 68.2 °F 66.7 °F 29.98 in Calm   4.0 mph 95 % 0.00 in
15:46 68.2 °F 66.7 °F 29.98 in Calm   2.0 mph 95 % 0.00 in
15:51 68.4 °F 67.2 °F 29.98 in Calm   1.0 mph 96 % 0.00 in
15:55 68.4 °F 67.2 °F 29.98 in Calm   1.2 mph 96 % 0.02 in
16:00 68.4 °F 67.2 °F 29.98 in Calm     96 % 0.02 in
16:05 68.5 °F 67.3 °F 29.99 in Calm     96 % 0.02 in
16:10 68.5 °F 67.3 °F 29.99 in Calm     96 % 0.01 in
16:15 68.4 °F 67.2 °F 29.99 in ENE 0.6 mph 1.2 mph 96 % 0.01 in
16:20 68.4 °F 67.2 °F 29.99 in Calm     96 % 0.01 in
16:26 68.3 °F 67.1 °F 29.99 in Calm   2.0 mph 96 % 0.00 in
16:31 68.2 °F 67.0 °F 29.99 in Calm   1.0 mph 96 % 0.00 in
16:35 68.2 °F 67.0 °F 29.97 in Calm   1.0 mph 96 % 0.00 in
16:40 68.3 °F 67.1 °F 29.97 in Calm   1.0 mph 96 % 0.00 in
16:46 68.3 °F 67.1 °F 29.97 in Calm   1.0 mph 96 % 0.00 in
16:50 68.2 °F 67.0 °F 29.96 in NE 0.6 mph 2.0 mph 96 % 0.01 in
16:55 68.2 °F 67.0 °F 29.95 in ESE 0.9 mph 2.3 mph 96 % 0.01 in
17:00 68.1 °F 66.9 °F 29.94 in ESE 0.6 mph 2.0 mph 96 % 0.01 in
17:05 68.0 °F 66.8 °F 29.95 in ESE 0.8 mph 1.2 mph 96 % 0.01 in
17:10 68.0 °F 66.8 °F 29.96 in ESE 0.1 mph 2.3 mph 96 % 0.01 in
17:15 68.0 °F 67.1 °F 29.96 in Calm     97 % 0.01 in
17:20 68.0 °F 66.8 °F 29.97 in ESE 0.2 mph 1.2 mph 96 % 0.01 in
17:25 68.0 °F 67.1 °F 29.97 in Calm   2.3 mph 97 % 0.02 in
17:31 68.0 °F 67.1 °F 29.97 in Calm     97 % 0.00 in
17:35 68.0 °F 67.1 °F 29.97 in ENE 2.0 mph 5.0 mph 97 % 0.00 in
17:41 68.0 °F 67.1 °F 29.97 in Calm   3.0 mph 97 % 0.00 in
17:46 68.0 °F 67.1 °F 29.97 in Calm   4.0 mph 97 % 0.00 in
17:51 68.0 °F 67.1 °F 29.97 in NE 1.0 mph 4.0 mph 97 % 0.00 in
17:56 68.0 °F 67.1 °F 29.98 in Calm   3.0 mph 97 % 0.00 in
18:01 68.0 °F 67.1 °F 29.98 in Calm     97 % 0.01 in
18:06 68.0 °F 67.1 °F 29.98 in Calm   2.3 mph 97 % 0.01 in
18:11 68.1 °F 67.2 °F 29.98 in Calm   1.2 mph 97 % 0.01 in
18:16 68.1 °F 67.2 °F 29.97 in NE 0.8 mph 2.3 mph 97 % 0.01 in
18:21 68.1 °F 67.2 °F 29.97 in NE 0.1 mph 1.2 mph 97 % 0.02 in
18:26 68.1 °F 67.2 °F 29.96 in NE 1.0 mph 2.3 mph 97 % 0.01 in
18:31 68.1 °F 67.2 °F 29.97 in NE 1.0 mph 2.3 mph 97 % 0.01 in
18:36 68.1 °F 67.2 °F 29.97 in NE 0.3 mph 2.3 mph 97 % 0.01 in
18:41 68.1 °F 67.2 °F 29.97 in ENE 2.4 mph 3.5 mph 97 % 0.01 in
18:46 68.0 °F 67.1 °F 29.96 in ENE 0.1 mph 1.2 mph 97 % 0.01 in
18:51 68.1 °F 67.2 °F 29.97 in ENE 0.3 mph 1.2 mph 97 % 0.01 in
18:56 68.0 °F 67.1 °F 29.97 in ENE 0.7 mph 1.2 mph 97 % 0.01 in
19:01 68.0 °F 67.1 °F 29.97 in ENE 0.3 mph 1.2 mph 97 % 0.01 in
19:06 68.0 °F 67.1 °F 29.97 in ENE 0.2 mph 1.2 mph 97 % 0.01 in
19:11 67.9 °F 67.0 °F 29.96 in ENE 0.3 mph 2.3 mph 97 % 0.01 in
19:16 67.8 °F 66.9 °F 29.97 in Calm   1.2 mph 97 % 0.02 in
19:21 67.8 °F 66.9 °F 29.97 in SE 0.7 mph 3.5 mph 97 % 0.01 in
19:26 67.7 °F 66.8 °F 29.97 in Calm   1.2 mph 97 % 0.01 in
19:31 67.7 °F 66.8 °F 29.97 in SE 0.2 mph 1.2 mph 97 % 0.01 in
19:36 67.7 °F 66.8 °F 29.97 in Calm     97 % 0.01 in
19:42 67.7 °F 66.8 °F 29.97 in Calm   1.2 mph 97 % 0.01 in
19:47 67.6 °F 66.7 °F 29.97 in ESE 2.0 mph 3.5 mph 97 % 0.01 in
19:52 67.5 °F 66.6 °F 29.96 in SE 0.5 mph 3.5 mph 97 % 0.01 in
19:57 67.5 °F 66.6 °F 29.96 in SE 0.8 mph 3.0 mph 97 % 0.01 in
20:02 67.4 °F 66.5 °F 29.96 in SE 0.1 mph 1.2 mph 97 % 0.01 in
20:07 67.4 °F 66.5 °F 29.96 in SSE 0.4 mph 3.0 mph 97 % 0.01 in
20:12 67.3 °F 66.4 °F 29.96 in SE 0.2 mph 1.2 mph 97 % 0.01 in
20:17 67.3 °F 66.4 °F 29.96 in Calm     97 % 0.00 in
20:22 67.3 °F 66.4 °F 29.96 in SE 1.1 mph 3.0 mph 97 % 0.00 in
20:27 67.2 °F 66.3 °F 29.96 in Calm   1.2 mph 97 % 0.01 in
20:32 67.2 °F 66.3 °F 29.95 in SE 0.4 mph 2.3 mph 97 % 0.01 in
20:37 67.1 °F 66.2 °F 29.95 in SE 1.3 mph 2.3 mph 97 % 0.01 in
20:42 67.1 °F 66.2 °F 29.94 in SE 0.1 mph 1.2 mph 97 % 0.01 in
20:47 67.0 °F 66.1 °F 29.94 in ESE 0.6 mph 3.5 mph 97 % 0.01 in
20:52 67.0 °F 66.1 °F 29.94 in Calm   1.2 mph 97 % 0.01 in
20:57 66.9 °F 66.0 °F 29.94 in SE 0.1 mph 2.3 mph 97 % 0.01 in
21:02 66.9 °F 66.0 °F 29.94 in SE 0.7 mph 3.0 mph 97 % 0.01 in
21:07 66.9 °F 66.0 °F 29.95 in SE 0.1 mph 2.3 mph 97 % 0.01 in
21:12 66.8 °F 65.9 °F 29.95 in Calm     97 % 0.01 in
21:17 66.8 °F 65.9 °F 29.95 in SSE 1.4 mph 3.5 mph 97 % 0.01 in
21:22 66.8 °F 65.9 °F 29.95 in Calm   2.3 mph 97 % 0.01 in
21:27 66.8 °F 65.9 °F 29.95 in Calm     97 % 0.00 in
21:33 66.8 °F 65.9 °F 29.96 in Calm     97 % 0.00 in
21:38 66.8 °F 65.9 °F 29.96 in Calm   3.5 mph 97 % 0.00 in
21:43 66.8 °F 65.9 °F 29.96 in Calm     97 % 0.00 in
21:48 66.8 °F 65.9 °F 29.96 in SE 0.3 mph 3.5 mph 97 % 0.00 in
21:53 66.8 °F 65.9 °F 29.96 in Calm   1.2 mph 97 % 0.00 in
21:58 66.8 °F 65.9 °F 29.96 in SE 0.1 mph 1.2 mph 97 % 0.00 in
22:03 66.8 °F 65.9 °F 29.96 in SE 0.5 mph 3.5 mph 97 % 0.00 in
22:08 66.8 °F 65.9 °F 29.96 in SE 0.7 mph 4.6 mph 97 % 0.00 in
22:13 66.8 °F 65.9 °F 29.96 in Calm   1.2 mph 97 % 0.00 in
22:18 66.8 °F 65.9 °F 29.96 in Calm     97 % 0.00 in
22:23 66.8 °F 65.9 °F 29.96 in Calm     97 % 0.00 in
22:28 66.9 °F 66.0 °F 29.96 in Calm     97 % 0.00 in
22:33 66.9 °F 66.0 °F 29.95 in Calm     97 % 0.00 in
22:38 66.9 °F 66.0 °F 29.95 in Calm     97 % 0.00 in
22:43 67.0 °F 66.1 °F 29.95 in Calm     97 % 0.00 in
22:48 67.0 °F 66.1 °F 29.95 in Calm     97 % 0.00 in
22:53 67.0 °F 66.1 °F 29.95 in Calm     97 % 0.00 in
22:58 67.0 °F 66.1 °F 29.95 in Calm     97 % 0.00 in
23:03 67.0 °F 66.1 °F 29.95 in Calm     97 % 0.00 in
23:08 67.0 °F 66.1 °F 29.95 in Calm     97 % 0.00 in
23:13 67.0 °F 66.4 °F 29.94 in Calm     98 % 0.00 in
23:18 67.0 °F 66.4 °F 29.94 in Calm     98 % 0.00 in
23:23 67.0 °F 66.4 °F 29.94 in Calm     98 % 0.00 in
23:28 67.0 °F 66.4 °F 29.94 in Calm     98 % 0.00 in
23:33 67.1 °F 66.5 °F 29.94 in Calm     98 % 0.00 in
23:38 67.1 °F 66.5 °F 29.94 in Calm     98 % 0.00 in
23:43 67.0 °F 66.4 °F 29.93 in Calm     98 % 0.00 in
23:48 67.0 °F 66.4 °F 29.93 in Calm   1.2 mph 98 % 0.00 in
23:53 67.0 °F 66.4 °F 29.93 in Calm   1.2 mph 98 % 0.00 in
23:58 66.9 °F 66.3 °F 29.92 in Calm     98 % 0.00 in
Crab Meadow Weather
Compliments of Weather Underground - 3 mb

Script developed by  Jim McMurry - jmcmurry@mwt.net Adapted for the template by  Wim van der Kuil - Leuven-Template.eu

Lightning: Lightning's return stroke is hotter than the surface of the sun. Lightning is 50,000 degrees F. The sun is about 11,000 degrees F.